Brandenburg, KY

9:29 AM EST on March 06, 2015 (GMT -0500)
Louisville International-Standiford | Change Station
CLOSE
Current Station
Airport
Location: Louisville,
Elevation: 489 ft
Nearby Weather Stations
Active Advisory: Flood Warning Active Notice: Record Report, Public Information Statement

Elev 489 ft 38.17 °N, 85.74 °W | Updated 33 minutes ago

Partly Cloudy
Partly Cloudy
13 °F
Feels Like 7 °F
N
4
Wind Variable Wind from ESE

Today
High -- | Low -- °F
--% Chance of Precip.
Yesterday
High -- | Low -- °F
Precip. -- in
7:09 AM 6:42 PM
Full, 99% visible
Pressure 30.62 in
Visibility 4.0 miles
Clouds Few 25000 ft
Windchill 7 °F
Dew Point 8 °F
Humidity 81%
Rainfall 0.00 in
Snow Depth Not available.
UV 1 out of 12
Pollen 3.00 out of 12
Air Quality Not available.
Flu Activity Not available.
METAR KSDF 061356Z 11003KT 4SM HZ FEW250 M11/M13 A3059 RMK AO2 SLP367 T11061133

More Conditions Fewer Conditions

Pressure 30.62 in
Visibility 4.0 miles
Clouds Few 25000 ft
Windchill 7 °F
Dew Point 8 °F
Humidity 81%
Rainfall 0.00 in
Snow Depth Not available.
UV 1 out of 12
Pollen 3.00 out of 12
Air Quality Not available.
Flu Activity Not available.
METAR KSDF 061356Z 11003KT 4SM HZ FEW250 M11/M13 A3059 RMK AO2 SLP367 T11061133

More Conditions Fewer Conditions

10-Day Weather Forecast

Almanac

Astronomy

Mar. 06, 2015 Rise Set
Actual Time
Civil Twilight
Nautical Twilight
Astronomical Twilight
Moon
Length of Visible Light
Length of Day
Tomorrow will be .
, % of the Moon is Illuminated

Today's Extremes

State Highs State Lows

Community

WunderPhotos

Upload Photos

1,803,282 photos uploaded!

WunderBlogs® & News

Nearby

Air Quality

  Air Quality AQ Index Pollutant
Not available.

Snow Depth

Station Depth Elevation

Earthquake Activity

City Distance Mag. Time & Date
Minimum magnitude displayed is 2.5.

Coastal Water Temperatures

Place Temperature

Nearby Weather Stations

Flood Warning
Statement as of 11:13 PM EST on March 05, 2015

The Flood Warning continues for
the Ohio River at McAlpine lower.
* From Sunday afternoon until further notice.
* At 11:00 PM Thursday the stage was 44.0 feet.
* Flood stage is 55.0 feet.
* Minor flooding is forecast.
* Forecast... rise above flood stage by Sunday early afternoon and
continue to rise to near 56.5 feet by Monday evening.
* Impact... at 58.0 feet... in 111 is floods upstream of Bridgeport.
* Flood history... this crest compares to a previous crest of 55.9
feet on may 22 1995.


Lat... Lon 3831 8580 3806 8605 3822 8636 3809 8636
      3793 8604 3824 8568